sensor_id;sensor_type;location;lat;lon;timestamp;P1;durP1;ratioP1;P2;durP2;ratioP2
13032;SDS011;6583;42.632;23.298;2023-08-24T00:01:06;11.40;;;10.23;;
13032;SDS011;6583;42.632;23.298;2023-08-24T00:03:33;11.32;;;10.32;;
13032;SDS011;6583;42.632;23.298;2023-08-24T00:06:00;11.07;;;10.18;;
13032;SDS011;6583;42.632;23.298;2023-08-24T00:08:27;11.15;;;10.25;;
13032;SDS011;6583;42.632;23.298;2023-08-24T00:10:55;11.15;;;10.25;;
13032;SDS011;6583;42.632;23.298;2023-08-24T00:13:21;10.75;;;9.85;;
13032;SDS011;6583;42.632;23.298;2023-08-24T00:15:48;11.32;;;10.40;;
13032;SDS011;6583;42.632;23.298;2023-08-24T00:18:15;11.07;;;10.20;;
13032;SDS011;6583;42.632;23.298;2023-08-24T00:20:43;11.25;;;10.25;;
13032;SDS011;6583;42.632;23.298;2023-08-24T00:23:10;11.50;;;10.50;;
13032;SDS011;6583;42.632;23.298;2023-08-24T00:25:36;11.05;;;10.15;;
13032;SDS011;6583;42.632;23.298;2023-08-24T00:28:05;10.65;;;9.65;;
13032;SDS011;6583;42.632;23.298;2023-08-24T00:30:31;11.00;;;10.10;;
13032;SDS011;6583;42.632;23.298;2023-08-24T00:32:58;10.18;;;9.27;;
13032;SDS011;6583;42.632;23.298;2023-08-24T00:35:25;10.93;;;10.02;;
13032;SDS011;6583;42.632;23.298;2023-08-24T00:37:52;10.18;;;9.27;;
13032;SDS011;6583;42.632;23.298;2023-08-24T00:40:19;9.77;;;8.88;;
13032;SDS011;6583;42.632;23.298;2023-08-24T00:42:45;10.60;;;9.70;;
13032;SDS011;6583;42.632;23.298;2023-08-24T00:45:13;10.63;;;9.73;;
13032;SDS011;6583;42.632;23.298;2023-08-24T00:47:41;10.77;;;9.88;;
13032;SDS011;6583;42.632;23.298;2023-08-24T00:50:10;10.45;;;9.40;;
13032;SDS011;6583;42.632;23.298;2023-08-24T00:52:37;10.13;;;9.25;;
13032;SDS011;6583;42.632;23.298;2023-08-24T00:55:06;10.23;;;9.43;;
13032;SDS011;6583;42.632;23.298;2023-08-24T00:57:34;11.18;;;10.18;;
13032;SDS011;6583;42.632;23.298;2023-08-24T01:00:02;10.55;;;9.68;;
13032;SDS011;6583;42.632;23.298;2023-08-24T01:02:34;10.60;;;9.70;;
13032;SDS011;6583;42.632;23.298;2023-08-24T01:05:01;10.23;;;9.38;;
13032;SDS011;6583;42.632;23.298;2023-08-24T01:07:29;9.85;;;8.85;;
13032;SDS011;6583;42.632;23.298;2023-08-24T01:09:56;10.80;;;9.57;;
13032;SDS011;6583;42.632;23.298;2023-08-24T01:12:24;9.90;;;8.90;;
13032;SDS011;6583;42.632;23.298;2023-08-24T01:15:00;10.05;;;9.13;;
13032;SDS011;6583;42.632;23.298;2023-08-24T01:17:36;9.98;;;9.18;;
13032;SDS011;6583;42.632;23.298;2023-08-24T01:20:05;10.45;;;9.40;;
13032;SDS011;6583;42.632;23.298;2023-08-24T01:22:37;11.13;;;10.02;;
13032;SDS011;6583;42.632;23.298;2023-08-24T01:25:15;11.02;;;9.98;;
13032;SDS011;6583;42.632;23.298;2023-08-24T01:27:44;10.57;;;9.77;;
13032;SDS011;6583;42.632;23.298;2023-08-24T01:30:14;10.60;;;9.70;;
13032;SDS011;6583;42.632;23.298;2023-08-24T01:32:40;10.32;;;9.52;;
13032;SDS011;6583;42.632;23.298;2023-08-24T01:35:08;10.50;;;9.60;;
13032;SDS011;6583;42.632;23.298;2023-08-24T01:37:36;11.48;;;10.45;;
13032;SDS011;6583;42.632;23.298;2023-08-24T01:40:05;10.77;;;9.80;;
13032;SDS011;6583;42.632;23.298;2023-08-24T01:42:37;10.82;;;9.85;;
13032;SDS011;6583;42.632;23.298;2023-08-24T01:45:10;10.82;;;9.77;;
13032;SDS011;6583;42.632;23.298;2023-08-24T01:47:39;11.40;;;10.38;;
13032;SDS011;6583;42.632;23.298;2023-08-24T01:50:08;10.38;;;9.50;;
13032;SDS011;6583;42.632;23.298;2023-08-24T01:52:35;11.18;;;10.27;;
13032;SDS011;6583;42.632;23.298;2023-08-24T01:55:02;10.15;;;9.25;;
13032;SDS011;6583;42.632;23.298;2023-08-24T01:57:29;10.88;;;9.98;;
13032;SDS011;6583;42.632;23.298;2023-08-24T01:59:56;10.88;;;10.02;;
13032;SDS011;6583;42.632;23.298;2023-08-24T02:02:24;10.73;;;9.82;;
13032;SDS011;6583;42.632;23.298;2023-08-24T02:04:51;11.70;;;10.55;;
13032;SDS011;6583;42.632;23.298;2023-08-24T02:07:18;11.48;;;10.48;;
13032;SDS011;6583;42.632;23.298;2023-08-24T02:09:44;11.52;;;10.52;;
13032;SDS011;6583;42.632;23.298;2023-08-24T02:12:11;11.90;;;10.73;;
13032;SDS011;6583;42.632;23.298;2023-08-24T02:14:37;11.70;;;10.55;;
13032;SDS011;6583;42.632;23.298;2023-08-24T02:17:04;11.23;;;10.30;;
13032;SDS011;6583;42.632;23.298;2023-08-24T02:19:32;11.43;;;10.52;;
13032;SDS011;6583;42.632;23.298;2023-08-24T02:21:59;10.88;;;9.98;;
13032;SDS011;6583;42.632;23.298;2023-08-24T02:24:25;11.85;;;10.82;;
13032;SDS011;6583;42.632;23.298;2023-08-24T02:26:52;11.23;;;10.32;;
13032;SDS011;6583;42.632;23.298;2023-08-24T02:29:19;11.63;;;10.73;;
13032;SDS011;6583;42.632;23.298;2023-08-24T02:31:45;12.10;;;10.95;;
13032;SDS011;6583;42.632;23.298;2023-08-24T02:34:15;12.32;;;11.23;;
13032;SDS011;6583;42.632;23.298;2023-08-24T02:36:43;11.20;;;10.20;;
13032;SDS011;6583;42.632;23.298;2023-08-24T02:39:09;11.90;;;10.80;;
13032;SDS011;6583;42.632;23.298;2023-08-24T02:41:36;11.82;;;10.63;;
13032;SDS011;6583;42.632;23.298;2023-08-24T02:44:03;11.40;;;10.40;;
13032;SDS011;6583;42.632;23.298;2023-08-24T02:46:30;11.00;;;10.10;;
13032;SDS011;6583;42.632;23.298;2023-08-24T02:48:56;10.65;;;9.65;;
13032;SDS011;6583;42.632;23.298;2023-08-24T02:51:23;11.45;;;10.43;;
13032;SDS011;6583;42.632;23.298;2023-08-24T02:53:51;11.18;;;10.18;;
13032;SDS011;6583;42.632;23.298;2023-08-24T02:56:18;11.52;;;10.50;;
13032;SDS011;6583;42.632;23.298;2023-08-24T02:58:44;10.68;;;9.80;;
13032;SDS011;6583;42.632;23.298;2023-08-24T03:01:11;11.50;;;10.57;;
13032;SDS011;6583;42.632;23.298;2023-08-24T03:03:38;11.50;;;10.25;;
13032;SDS011;6583;42.632;23.298;2023-08-24T03:06:05;10.80;;;9.90;;
13032;SDS011;6583;42.632;23.298;2023-08-24T03:08:33;11.45;;;10.35;;
13032;SDS011;6583;42.632;23.298;2023-08-24T03:11:02;11.93;;;10.82;;
13032;SDS011;6583;42.632;23.298;2023-08-24T03:13:29;11.43;;;10.43;;
13032;SDS011;6583;42.632;23.298;2023-08-24T03:15:56;11.77;;;10.68;;
13032;SDS011;6583;42.632;23.298;2023-08-24T03:18:23;11.90;;;10.75;;
13032;SDS011;6583;42.632;23.298;2023-08-24T03:20:50;11.25;;;10.35;;
13032;SDS011;6583;42.632;23.298;2023-08-24T03:23:17;10.75;;;9.60;;
13032;SDS011;6583;42.632;23.298;2023-08-24T03:25:43;11.20;;;10.20;;
13032;SDS011;6583;42.632;23.298;2023-08-24T03:28:11;14.23;;;12.05;;
13032;SDS011;6583;42.632;23.298;2023-08-24T03:30:39;13.35;;;11.90;;
13032;SDS011;6583;42.632;23.298;2023-08-24T03:33:11;13.27;;;12.10;;
13032;SDS011;6583;42.632;23.298;2023-08-24T03:35:38;13.40;;;11.80;;
13032;SDS011;6583;42.632;23.298;2023-08-24T03:38:06;13.00;;;11.90;;
13032;SDS011;6583;42.632;23.298;2023-08-24T03:40:32;13.88;;;12.50;;
13032;SDS011;6583;42.632;23.298;2023-08-24T03:43:00;13.43;;;12.10;;
13032;SDS011;6583;42.632;23.298;2023-08-24T03:45:29;13.80;;;12.40;;
13032;SDS011;6583;42.632;23.298;2023-08-24T03:47:55;18.65;;;13.45;;
13032;SDS011;6583;42.632;23.298;2023-08-24T03:50:22;13.70;;;12.43;;
13032;SDS011;6583;42.632;23.298;2023-08-24T03:52:49;12.82;;;11.48;;
13032;SDS011;6583;42.632;23.298;2023-08-24T03:55:16;12.38;;;11.18;;
13032;SDS011;6583;42.632;23.298;2023-08-24T03:57:43;12.20;;;10.85;;
13032;SDS011;6583;42.632;23.298;2023-08-24T04:00:10;12.68;;;11.48;;
13032;SDS011;6583;42.632;23.298;2023-08-24T04:02:40;13.32;;;11.90;;
13032;SDS011;6583;42.632;23.298;2023-08-24T04:05:07;12.15;;;11.05;;
13032;SDS011;6583;42.632;23.298;2023-08-24T04:07:34;13.00;;;11.80;;
13032;SDS011;6583;42.632;23.298;2023-08-24T04:10:03;12.85;;;11.52;;
13032;SDS011;6583;42.632;23.298;2023-08-24T04:12:31;12.77;;;11.57;;
13032;SDS011;6583;42.632;23.298;2023-08-24T04:14:58;13.18;;;11.50;;
13032;SDS011;6583;42.632;23.298;2023-08-24T04:17:24;12.00;;;10.90;;
13032;SDS011;6583;42.632;23.298;2023-08-24T04:19:53;12.18;;;11.07;;
13032;SDS011;6583;42.632;23.298;2023-08-24T04:22:19;12.18;;;11.07;;
13032;SDS011;6583;42.632;23.298;2023-08-24T04:24:46;13.10;;;11.98;;
13032;SDS011;6583;42.632;23.298;2023-08-24T04:27:14;12.45;;;11.38;;
13032;SDS011;6583;42.632;23.298;2023-08-24T04:29:40;12.70;;;11.50;;
13032;SDS011;6583;42.632;23.298;2023-08-24T04:32:07;14.05;;;12.90;;
13032;SDS011;6583;42.632;23.298;2023-08-24T04:34:34;12.68;;;11.48;;
13032;SDS011;6583;42.632;23.298;2023-08-24T04:37:02;13.50;;;12.30;;
13032;SDS011;6583;42.632;23.298;2023-08-24T04:39:29;12.98;;;11.77;;
13032;SDS011;6583;42.632;23.298;2023-08-24T04:41:55;13.90;;;12.63;;
13032;SDS011;6583;42.632;23.298;2023-08-24T04:44:22;13.77;;;12.35;;
13032;SDS011;6583;42.632;23.298;2023-08-24T04:46:49;13.65;;;12.35;;
13032;SDS011;6583;42.632;23.298;2023-08-24T04:49:15;13.88;;;12.60;;
13032;SDS011;6583;42.632;23.298;2023-08-24T04:51:42;14.02;;;12.70;;
13032;SDS011;6583;42.632;23.298;2023-08-24T04:54:10;14.40;;;13.00;;
13032;SDS011;6583;42.632;23.298;2023-08-24T04:56:37;13.50;;;12.32;;
13032;SDS011;6583;42.632;23.298;2023-08-24T04:59:03;16.95;;;15.23;;
13032;SDS011;6583;42.632;23.298;2023-08-24T05:01:30;14.40;;;13.00;;
13032;SDS011;6583;42.632;23.298;2023-08-24T05:03:57;14.25;;;12.88;;
13032;SDS011;6583;42.632;23.298;2023-08-24T05:06:24;14.45;;;13.02;;
13032;SDS011;6583;42.632;23.298;2023-08-24T05:08:51;14.82;;;13.32;;
13032;SDS011;6583;42.632;23.298;2023-08-24T05:11:19;14.23;;;12.68;;
13032;SDS011;6583;42.632;23.298;2023-08-24T05:13:49;14.10;;;12.70;;
13032;SDS011;6583;42.632;23.298;2023-08-24T05:16:16;15.10;;;13.63;;
13032;SDS011;6583;42.632;23.298;2023-08-24T05:18:42;14.85;;;13.35;;
13032;SDS011;6583;42.632;23.298;2023-08-24T05:21:09;14.02;;;12.68;;
13032;SDS011;6583;42.632;23.298;2023-08-24T05:23:36;14.18;;;12.98;;
13032;SDS011;6583;42.632;23.298;2023-08-24T05:26:03;14.95;;;13.35;;
13032;SDS011;6583;42.632;23.298;2023-08-24T05:28:31;14.68;;;13.15;;
13032;SDS011;6583;42.632;23.298;2023-08-24T05:30:57;14.63;;;13.13;;
13032;SDS011;6583;42.632;23.298;2023-08-24T05:33:25;15.02;;;13.73;;
13032;SDS011;6583;42.632;23.298;2023-08-24T05:35:56;15.73;;;14.20;;
13032;SDS011;6583;42.632;23.298;2023-08-24T05:38:23;15.35;;;13.95;;
13032;SDS011;6583;42.632;23.298;2023-08-24T05:40:50;15.25;;;13.85;;
13032;SDS011;6583;42.632;23.298;2023-08-24T05:43:17;15.77;;;14.10;;
13032;SDS011;6583;42.632;23.298;2023-08-24T05:45:45;15.10;;;13.60;;
13032;SDS011;6583;42.632;23.298;2023-08-24T05:48:12;22.13;;;17.80;;
13032;SDS011;6583;42.632;23.298;2023-08-24T05:50:42;20.17;;;16.42;;
13032;SDS011;6583;42.632;23.298;2023-08-24T05:53:09;29.58;;;26.25;;
13032;SDS011;6583;42.632;23.298;2023-08-24T05:55:36;20.67;;;18.50;;
13032;SDS011;6583;42.632;23.298;2023-08-24T05:58:03;22.70;;;18.50;;
13032;SDS011;6583;42.632;23.298;2023-08-24T06:00:30;20.20;;;18.25;;
13032;SDS011;6583;42.632;23.298;2023-08-24T06:02:58;18.70;;;16.05;;
13032;SDS011;6583;42.632;23.298;2023-08-24T06:05:25;18.17;;;16.40;;
13032;SDS011;6583;42.632;23.298;2023-08-24T06:07:51;21.35;;;16.88;;
13032;SDS011;6583;42.632;23.298;2023-08-24T06:10:18;20.73;;;17.65;;
13032;SDS011;6583;42.632;23.298;2023-08-24T06:12:44;21.92;;;19.65;;
13032;SDS011;6583;42.632;23.298;2023-08-24T06:15:11;24.55;;;21.30;;
13032;SDS011;6583;42.632;23.298;2023-08-24T06:17:38;22.20;;;18.08;;
13032;SDS011;6583;42.632;23.298;2023-08-24T06:20:07;21.83;;;19.50;;
13032;SDS011;6583;42.632;23.298;2023-08-24T06:22:36;22.13;;;19.38;;
13032;SDS011;6583;42.632;23.298;2023-08-24T06:25:03;23.27;;;20.88;;
13032;SDS011;6583;42.632;23.298;2023-08-24T06:27:33;26.23;;;22.02;;
13032;SDS011;6583;42.632;23.298;2023-08-24T06:30:00;23.52;;;19.75;;
13032;SDS011;6583;42.632;23.298;2023-08-24T06:32:30;23.13;;;20.83;;
13032;SDS011;6583;42.632;23.298;2023-08-24T06:34:56;21.42;;;19.23;;
13032;SDS011;6583;42.632;23.298;2023-08-24T06:37:25;21.52;;;19.20;;
13032;SDS011;6583;42.632;23.298;2023-08-24T06:39:51;23.15;;;20.67;;
13032;SDS011;6583;42.632;23.298;2023-08-24T06:42:18;24.38;;;18.75;;
13032;SDS011;6583;42.632;23.298;2023-08-24T06:44:44;23.75;;;19.42;;
13032;SDS011;6583;42.632;23.298;2023-08-24T06:47:13;21.20;;;19.02;;
13032;SDS011;6583;42.632;23.298;2023-08-24T06:49:40;20.77;;;18.20;;
13032;SDS011;6583;42.632;23.298;2023-08-24T06:52:07;20.17;;;17.98;;
13032;SDS011;6583;42.632;23.298;2023-08-24T06:54:35;24.92;;;17.70;;
13032;SDS011;6583;42.632;23.298;2023-08-24T06:57:01;18.60;;;15.73;;
13032;SDS011;6583;42.632;23.298;2023-08-24T06:59:28;18.98;;;16.25;;
13032;SDS011;6583;42.632;23.298;2023-08-24T07:01:55;17.77;;;15.88;;
13032;SDS011;6583;42.632;23.298;2023-08-24T07:04:23;17.73;;;15.60;;
13032;SDS011;6583;42.632;23.298;2023-08-24T07:06:49;17.95;;;16.10;;
13032;SDS011;6583;42.632;23.298;2023-08-24T07:09:16;17.92;;;15.88;;
13032;SDS011;6583;42.632;23.298;2023-08-24T07:11:44;17.30;;;15.10;;
13032;SDS011;6583;42.632;23.298;2023-08-24T07:14:11;20.60;;;16.23;;
13032;SDS011;6583;42.632;23.298;2023-08-24T07:16:38;16.35;;;14.73;;
13032;SDS011;6583;42.632;23.298;2023-08-24T07:19:04;16.67;;;14.85;;
13032;SDS011;6583;42.632;23.298;2023-08-24T07:21:31;17.63;;;15.88;;
13032;SDS011;6583;42.632;23.298;2023-08-24T07:23:58;17.13;;;15.00;;
13032;SDS011;6583;42.632;23.298;2023-08-24T07:26:24;18.88;;;15.43;;
13032;SDS011;6583;42.632;23.298;2023-08-24T07:28:53;17.70;;;14.32;;
13032;SDS011;6583;42.632;23.298;2023-08-24T07:31:20;16.58;;;14.95;;
13032;SDS011;6583;42.632;23.298;2023-08-24T07:33:47;16.70;;;14.20;;
13032;SDS011;6583;42.632;23.298;2023-08-24T07:36:14;15.88;;;13.85;;
13032;SDS011;6583;42.632;23.298;2023-08-24T07:38:41;16.40;;;14.60;;
13032;SDS011;6583;42.632;23.298;2023-08-24T07:41:07;17.80;;;15.20;;
13032;SDS011;6583;42.632;23.298;2023-08-24T07:43:35;18.65;;;14.63;;
13032;SDS011;6583;42.632;23.298;2023-08-24T07:46:03;18.85;;;14.73;;
13032;SDS011;6583;42.632;23.298;2023-08-24T07:48:31;17.10;;;15.50;;
13032;SDS011;6583;42.632;23.298;2023-08-24T07:50:57;17.83;;;16.02;;
13032;SDS011;6583;42.632;23.298;2023-08-24T07:53:24;16.40;;;14.75;;
13032;SDS011;6583;42.632;23.298;2023-08-24T07:55:52;17.33;;;15.02;;
13032;SDS011;6583;42.632;23.298;2023-08-24T07:58:18;16.80;;;15.02;;
13032;SDS011;6583;42.632;23.298;2023-08-24T08:00:45;18.55;;;15.77;;
13032;SDS011;6583;42.632;23.298;2023-08-24T08:03:17;16.25;;;14.48;;
13032;SDS011;6583;42.632;23.298;2023-08-24T08:05:43;17.20;;;15.40;;
13032;SDS011;6583;42.632;23.298;2023-08-24T08:08:10;17.55;;;15.95;;
13032;SDS011;6583;42.632;23.298;2023-08-24T08:10:37;16.08;;;14.57;;
13032;SDS011;6583;42.632;23.298;2023-08-24T08:13:03;18.00;;;14.32;;
13032;SDS011;6583;42.632;23.298;2023-08-24T08:15:30;16.63;;;15.02;;
13032;SDS011;6583;42.632;23.298;2023-08-24T08:17:57;16.83;;;14.88;;
13032;SDS011;6583;42.632;23.298;2023-08-24T08:20:25;17.25;;;15.45;;
13032;SDS011;6583;42.632;23.298;2023-08-24T08:22:52;15.95;;;14.32;;
13032;SDS011;6583;42.632;23.298;2023-08-24T08:25:18;16.38;;;14.65;;
13032;SDS011;6583;42.632;23.298;2023-08-24T08:27:47;15.90;;;14.25;;
13032;SDS011;6583;42.632;23.298;2023-08-24T08:30:14;15.90;;;14.30;;
13032;SDS011;6583;42.632;23.298;2023-08-24T08:32:40;15.77;;;14.32;;
13032;SDS011;6583;42.632;23.298;2023-08-24T08:35:08;15.25;;;13.82;;
13032;SDS011;6583;42.632;23.298;2023-08-24T08:37:36;15.63;;;14.13;;
13032;SDS011;6583;42.632;23.298;2023-08-24T08:40:03;15.85;;;14.30;;
13032;SDS011;6583;42.632;23.298;2023-08-24T08:42:31;15.23;;;13.75;;
13032;SDS011;6583;42.632;23.298;2023-08-24T08:44:58;16.38;;;13.55;;
13032;SDS011;6583;42.632;23.298;2023-08-24T08:47:28;13.80;;;12.40;;
13032;SDS011;6583;42.632;23.298;2023-08-24T08:49:54;13.13;;;11.85;;
13032;SDS011;6583;42.632;23.298;2023-08-24T08:52:21;13.32;;;12.10;;
13032;SDS011;6583;42.632;23.298;2023-08-24T08:54:51;13.05;;;11.80;;
13032;SDS011;6583;42.632;23.298;2023-08-24T08:57:18;14.05;;;12.63;;
13032;SDS011;6583;42.632;23.298;2023-08-24T08:59:47;13.60;;;12.40;;
13032;SDS011;6583;42.632;23.298;2023-08-24T09:02:16;14.57;;;13.27;;
13032;SDS011;6583;42.632;23.298;2023-08-24T09:04:44;14.32;;;12.90;;
13032;SDS011;6583;42.632;23.298;2023-08-24T09:07:12;14.15;;;12.77;;
13032;SDS011;6583;42.632;23.298;2023-08-24T09:09:39;14.20;;;12.77;;
13032;SDS011;6583;42.632;23.298;2023-08-24T09:12:08;15.18;;;13.85;;
13032;SDS011;6583;42.632;23.298;2023-08-24T09:14:34;13.93;;;12.73;;
13032;SDS011;6583;42.632;23.298;2023-08-24T09:17:01;14.60;;;13.40;;
13032;SDS011;6583;42.632;23.298;2023-08-24T09:19:28;14.73;;;13.52;;
13032;SDS011;6583;42.632;23.298;2023-08-24T09:21:56;15.27;;;13.77;;
13032;SDS011;6583;42.632;23.298;2023-08-24T09:24:28;14.68;;;13.20;;
13032;SDS011;6583;42.632;23.298;2023-08-24T09:26:56;15.48;;;13.88;;
13032;SDS011;6583;42.632;23.298;2023-08-24T09:29:24;15.10;;;13.68;;
13032;SDS011;6583;42.632;23.298;2023-08-24T09:31:50;15.52;;;14.10;;
13032;SDS011;6583;42.632;23.298;2023-08-24T09:34:18;16.80;;;14.25;;
13032;SDS011;6583;42.632;23.298;2023-08-24T09:36:46;15.93;;;14.25;;
13032;SDS011;6583;42.632;23.298;2023-08-24T09:39:13;17.02;;;15.45;;
13032;SDS011;6583;42.632;23.298;2023-08-24T09:41:45;15.50;;;14.20;;
13032;SDS011;6583;42.632;23.298;2023-08-24T09:44:13;16.77;;;15.27;;
13032;SDS011;6583;42.632;23.298;2023-08-24T09:46:42;15.55;;;14.25;;
13032;SDS011;6583;42.632;23.298;2023-08-24T09:49:09;15.40;;;13.95;;
13032;SDS011;6583;42.632;23.298;2023-08-24T09:51:37;13.73;;;12.63;;
13032;SDS011;6583;42.632;23.298;2023-08-24T09:54:05;14.73;;;13.50;;
13032;SDS011;6583;42.632;23.298;2023-08-24T09:56:34;15.48;;;13.88;;
13032;SDS011;6583;42.632;23.298;2023-08-24T09:59:04;14.57;;;13.38;;
13032;SDS011;6583;42.632;23.298;2023-08-24T10:01:36;14.43;;;13.00;;
13032;SDS011;6583;42.632;23.298;2023-08-24T10:04:05;14.75;;;13.52;;
13032;SDS011;6583;42.632;23.298;2023-08-24T10:06:33;14.80;;;13.55;;
13032;SDS011;6583;42.632;23.298;2023-08-24T10:09:02;15.32;;;13.80;;
13032;SDS011;6583;42.632;23.298;2023-08-24T10:11:34;14.77;;;13.38;;
13032;SDS011;6583;42.632;23.298;2023-08-24T10:14:07;13.70;;;12.43;;
13032;SDS011;6583;42.632;23.298;2023-08-24T10:16:38;14.55;;;13.15;;
13032;SDS011;6583;42.632;23.298;2023-08-24T10:19:09;14.88;;;13.60;;
13032;SDS011;6583;42.632;23.298;2023-08-24T10:21:36;14.93;;;13.55;;
13032;SDS011;6583;42.632;23.298;2023-08-24T10:24:04;15.85;;;14.35;;
13032;SDS011;6583;42.632;23.298;2023-08-24T10:26:32;14.75;;;13.45;;
13032;SDS011;6583;42.632;23.298;2023-08-24T10:28:59;15.45;;;14.15;;
13032;SDS011;6583;42.632;23.298;2023-08-24T10:31:26;13.65;;;12.52;;
13032;SDS011;6583;42.632;23.298;2023-08-24T10:33:54;14.35;;;12.90;;
13032;SDS011;6583;42.632;23.298;2023-08-24T10:36:24;15.27;;;13.98;;
13032;SDS011;6583;42.632;23.298;2023-08-24T10:38:53;14.07;;;12.88;;
13032;SDS011;6583;42.632;23.298;2023-08-24T10:41:25;13.73;;;12.32;;
13032;SDS011;6583;42.632;23.298;2023-08-24T10:43:52;14.27;;;13.10;;
13032;SDS011;6583;42.632;23.298;2023-08-24T10:46:33;13.18;;;12.07;;
13032;SDS011;6583;42.632;23.298;2023-08-24T10:49:03;12.27;;;11.23;;
13032;SDS011;6583;42.632;23.298;2023-08-24T10:51:31;11.82;;;10.82;;
13032;SDS011;6583;42.632;23.298;2023-08-24T10:54:09;12.98;;;11.63;;
13032;SDS011;6583;42.632;23.298;2023-08-24T10:56:36;12.30;;;11.40;;
13032;SDS011;6583;42.632;23.298;2023-08-24T10:59:10;12.63;;;11.57;;
13032;SDS011;6583;42.632;23.298;2023-08-24T11:01:38;13.18;;;12.07;;
13032;SDS011;6583;42.632;23.298;2023-08-24T11:04:06;13.18;;;12.05;;
13032;SDS011;6583;42.632;23.298;2023-08-24T11:06:34;14.30;;;13.00;;
13032;SDS011;6583;42.632;23.298;2023-08-24T11:09:17;13.80;;;12.48;;
13032;SDS011;6583;42.632;23.298;2023-08-24T11:11:54;14.13;;;12.82;;
13032;SDS011;6583;42.632;23.298;2023-08-24T11:14:22;14.63;;;13.20;;
13032;SDS011;6583;42.632;23.298;2023-08-24T11:16:51;15.40;;;13.90;;
13032;SDS011;6583;42.632;23.298;2023-08-24T11:19:18;15.02;;;13.57;;
13032;SDS011;6583;42.632;23.298;2023-08-24T11:21:46;14.88;;;13.57;;
13032;SDS011;6583;42.632;23.298;2023-08-24T11:24:13;15.43;;;14.00;;
13032;SDS011;6583;42.632;23.298;2023-08-24T11:26:41;16.95;;;14.68;;
13032;SDS011;6583;42.632;23.298;2023-08-24T11:29:09;14.70;;;13.30;;
13032;SDS011;6583;42.632;23.298;2023-08-24T11:31:36;15.30;;;13.88;;
13032;SDS011;6583;42.632;23.298;2023-08-24T11:34:03;15.25;;;13.95;;
13032;SDS011;6583;42.632;23.298;2023-08-24T11:36:36;14.93;;;13.52;;
13032;SDS011;6583;42.632;23.298;2023-08-24T11:39:14;15.18;;;13.70;;
13032;SDS011;6583;42.632;23.298;2023-08-24T11:41:42;14.10;;;13.00;;
13032;SDS011;6583;42.632;23.298;2023-08-24T11:44:10;15.82;;;14.07;;
13032;SDS011;6583;42.632;23.298;2023-08-24T11:46:38;15.52;;;14.13;;
13032;SDS011;6583;42.632;23.298;2023-08-24T11:49:05;14.32;;;12.95;;
13032;SDS011;6583;42.632;23.298;2023-08-24T11:51:32;12.60;;;11.32;;
13032;SDS011;6583;42.632;23.298;2023-08-24T11:54:00;11.85;;;10.85;;
13032;SDS011;6583;42.632;23.298;2023-08-24T11:56:28;12.23;;;11.23;;
13032;SDS011;6583;42.632;23.298;2023-08-24T11:58:55;12.95;;;11.88;;
13032;SDS011;6583;42.632;23.298;2023-08-24T12:01:21;13.90;;;12.70;;
13032;SDS011;6583;42.632;23.298;2023-08-24T12:03:49;13.68;;;12.48;;
13032;SDS011;6583;42.632;23.298;2023-08-24T12:06:16;13.43;;;12.18;;
13032;SDS011;6583;42.632;23.298;2023-08-24T12:08:44;13.93;;;12.70;;
13032;SDS011;6583;42.632;23.298;2023-08-24T12:11:13;14.40;;;13.07;;
13032;SDS011;6583;42.632;23.298;2023-08-24T12:13:45;14.38;;;13.15;;
13032;SDS011;6583;42.632;23.298;2023-08-24T12:16:13;14.13;;;12.90;;
13032;SDS011;6583;42.632;23.298;2023-08-24T12:18:49;13.75;;;12.52;;
13032;SDS011;6583;42.632;23.298;2023-08-24T12:21:17;14.15;;;12.95;;
13032;SDS011;6583;42.632;23.298;2023-08-24T12:23:44;14.48;;;13.27;;
13032;SDS011;6583;42.632;23.298;2023-08-24T12:26:17;14.55;;;13.35;;
13032;SDS011;6583;42.632;23.298;2023-08-24T12:28:49;15.57;;;14.27;;
13032;SDS011;6583;42.632;23.298;2023-08-24T12:31:17;15.25;;;13.90;;
13032;SDS011;6583;42.632;23.298;2023-08-24T12:33:44;15.10;;;13.55;;
13032;SDS011;6583;42.632;23.298;2023-08-24T12:36:11;15.23;;;13.68;;
13032;SDS011;6583;42.632;23.298;2023-08-24T12:38:38;15.10;;;13.80;;
13032;SDS011;6583;42.632;23.298;2023-08-24T12:41:06;16.42;;;13.35;;
13032;SDS011;6583;42.632;23.298;2023-08-24T12:43:33;14.98;;;13.68;;
13032;SDS011;6583;42.632;23.298;2023-08-24T12:46:01;15.15;;;13.73;;
13032;SDS011;6583;42.632;23.298;2023-08-24T12:48:28;14.75;;;13.45;;
13032;SDS011;6583;42.632;23.298;2023-08-24T12:50:55;15.65;;;14.18;;
13032;SDS011;6583;42.632;23.298;2023-08-24T12:53:21;19.98;;;14.25;;
13032;SDS011;6583;42.632;23.298;2023-08-24T12:55:48;15.20;;;13.82;;
13032;SDS011;6583;42.632;23.298;2023-08-24T12:58:15;15.38;;;13.98;;
13032;SDS011;6583;42.632;23.298;2023-08-24T13:00:41;14.50;;;13.20;;
13032;SDS011;6583;42.632;23.298;2023-08-24T13:03:09;14.75;;;13.55;;
13032;SDS011;6583;42.632;23.298;2023-08-24T13:05:36;15.32;;;13.68;;
13032;SDS011;6583;42.632;23.298;2023-08-24T13:08:03;14.45;;;13.25;;
13032;SDS011;6583;42.632;23.298;2023-08-24T13:10:30;14.07;;;12.88;;
13032;SDS011;6583;42.632;23.298;2023-08-24T13:12:57;13.43;;;12.15;;
13032;SDS011;6583;42.632;23.298;2023-08-24T13:15:24;14.57;;;13.18;;
13032;SDS011;6583;42.632;23.298;2023-08-24T13:17:51;13.85;;;12.57;;
13032;SDS011;6583;42.632;23.298;2023-08-24T13:20:19;13.27;;;12.10;;
13032;SDS011;6583;42.632;23.298;2023-08-24T13:22:46;13.95;;;12.65;;
13032;SDS011;6583;42.632;23.298;2023-08-24T13:25:12;14.30;;;12.82;;
13032;SDS011;6583;42.632;23.298;2023-08-24T13:27:39;14.02;;;12.73;;
13032;SDS011;6583;42.632;23.298;2023-08-24T13:30:06;14.43;;;13.02;;
13032;SDS011;6583;42.632;23.298;2023-08-24T13:32:33;14.35;;;12.98;;
13032;SDS011;6583;42.632;23.298;2023-08-24T13:35:00;14.50;;;13.02;;
13032;SDS011;6583;42.632;23.298;2023-08-24T13:37:28;15.07;;;13.35;;
13032;SDS011;6583;42.632;23.298;2023-08-24T13:39:55;14.75;;;13.38;;
13032;SDS011;6583;42.632;23.298;2023-08-24T13:42:21;17.63;;;13.43;;
13032;SDS011;6583;42.632;23.298;2023-08-24T13:44:48;13.98;;;12.77;;
13032;SDS011;6583;42.632;23.298;2023-08-24T13:47:15;14.98;;;13.38;;
13032;SDS011;6583;42.632;23.298;2023-08-24T13:49:41;14.60;;;13.10;;
13032;SDS011;6583;42.632;23.298;2023-08-24T13:52:08;14.02;;;12.73;;
13032;SDS011;6583;42.632;23.298;2023-08-24T13:54:36;15.68;;;13.23;;
13032;SDS011;6583;42.632;23.298;2023-08-24T13:57:03;15.23;;;13.80;;
13032;SDS011;6583;42.632;23.298;2023-08-24T13:59:30;15.98;;;14.32;;
13032;SDS011;6583;42.632;23.298;2023-08-24T14:01:58;15.05;;;13.73;;
13032;SDS011;6583;42.632;23.298;2023-08-24T14:04:25;15.32;;;13.93;;
13032;SDS011;6583;42.632;23.298;2023-08-24T14:06:51;15.07;;;13.65;;
13032;SDS011;6583;42.632;23.298;2023-08-24T14:09:18;15.65;;;14.07;;
13032;SDS011;6583;42.632;23.298;2023-08-24T14:11:46;14.93;;;13.38;;
13032;SDS011;6583;42.632;23.298;2023-08-24T14:14:13;15.35;;;13.82;;
13032;SDS011;6583;42.632;23.298;2023-08-24T14:16:40;15.60;;;14.13;;
13032;SDS011;6583;42.632;23.298;2023-08-24T14:19:07;15.15;;;13.75;;
13032;SDS011;6583;42.632;23.298;2023-08-24T14:21:33;15.52;;;14.00;;
13032;SDS011;6583;42.632;23.298;2023-08-24T14:24:00;14.85;;;13.23;;
13032;SDS011;6583;42.632;23.298;2023-08-24T14:26:28;16.05;;;14.65;;